createdAt,value
2018-09-11T00:00:04.980Z,89.85
2018-09-11T00:01:15.065Z,89.56
2018-09-11T00:02:24.874Z,89.56
2018-09-11T00:03:34.956Z,89.56
2018-09-11T00:04:45.044Z,89.47
2018-09-11T00:05:55.135Z,89.47
2018-09-11T00:07:05.214Z,89.85
2018-09-11T00:08:15.301Z,90.14
2018-09-11T00:09:25.385Z,89.56
2018-09-11T00:10:34.942Z,89.47
2018-09-11T00:11:44.749Z,89.65
2018-09-11T00:12:54.854Z,89.56
2018-09-11T00:14:04.933Z,89.65
2018-09-11T00:15:14.844Z,89.56
2018-09-11T00:16:24.920Z,89.47
2018-09-11T00:17:34.972Z,89.56
2018-09-11T00:18:45.057Z,89.56
2018-09-11T00:19:55.136Z,89.56
2018-09-11T00:21:05.215Z,89.56
2018-09-11T00:22:15.308Z,89.65
2018-09-11T00:23:25.135Z,89.47
2018-09-11T00:24:34.936Z,89.75
2018-09-11T00:25:45.016Z,89.56
2018-09-11T00:26:55.124Z,89.65
2018-09-11T00:28:05.217Z,89.75
2018-09-11T00:29:15.294Z,89.47
2018-09-11T00:30:25.369Z,89.56
2018-09-11T00:31:34.913Z,90.14
2018-09-11T00:32:44.482Z,90.05
2018-09-11T00:33:54.319Z,89.95
2018-09-11T00:35:03.913Z,90.05
2018-09-11T00:36:13.981Z,89.95
2018-09-11T00:37:24.046Z,89.75
2018-09-11T00:38:34.170Z,90.05
2018-09-11T00:39:44.282Z,89.65
2018-09-11T00:40:54.367Z,89.56
2018-09-11T00:42:04.183Z,89.56
2018-09-11T00:43:14.008Z,89.56
2018-09-11T00:44:24.142Z,89.85
2018-09-11T00:45:34.269Z,89.47
2018-09-11T00:46:44.107Z,89.56
2018-09-11T00:47:54.200Z,89.95
2018-09-11T00:49:04.008Z,89.85
2018-09-11T00:50:14.128Z,89.37
2018-09-11T00:51:24.221Z,89.75
2018-09-11T00:52:34.309Z,89.85
2018-09-11T00:53:43.845Z,89.65
2018-09-11T00:54:53.908Z,89.85
2018-09-11T00:56:03.989Z,89.65
2018-09-11T00:57:14.087Z,89.75
2018-09-11T00:58:23.640Z,89.65
2018-09-11T00:59:33.703Z,89.75
2018-09-11T01:00:43.771Z,89.65
2018-09-11T01:01:53.920Z,89.47
2018-09-11T01:03:04.010Z,89.65
2018-09-11T01:04:13.817Z,89.75
2018-09-11T01:05:23.636Z,89.85
2018-09-11T01:06:33.711Z,89.85
2018-09-11T01:07:43.826Z,89.37
2018-09-11T01:08:53.899Z,89.47
2018-09-11T01:10:04.059Z,89.47
2018-09-11T01:11:14.132Z,89.75
2018-09-11T01:12:24.210Z,89.95
2018-09-11T01:13:34.269Z,89.65
2018-09-11T01:14:44.332Z,89.65
2018-09-11T01:15:54.172Z,89.65
2018-09-11T01:17:03.979Z,89.75
2018-09-11T01:18:14.071Z,89.56
2018-09-11T01:19:23.879Z,89.56
2018-09-11T01:20:33.672Z,89.37
2018-09-11T01:21:43.753Z,89.85
2018-09-11T01:22:53.558Z,89.56
2018-09-11T01:24:03.639Z,89.47
2018-09-11T01:25:13.753Z,89.65
2018-09-11T01:26:23.866Z,89.56
2018-09-11T01:27:33.688Z,89.65
2018-09-11T01:28:43.489Z,89.56
2018-09-11T01:29:53.570Z,89.95
2018-09-11T01:31:04.093Z,89.56
2018-09-11T01:32:14.157Z,89.56
2018-09-11T01:33:24.222Z,89.85
2018-09-11T01:34:34.287Z,89.56
2018-09-11T01:35:44.367Z,89.56
2018-09-11T01:36:54.500Z,89.85
2018-09-11T01:38:04.583Z,89.95
2018-09-11T01:39:14.655Z,89.32
2018-09-11T01:40:24.750Z,89.9
2018-09-11T01:41:34.813Z,89.51
2018-09-11T01:42:44.630Z,89.51
2018-09-11T01:43:54.465Z,89.47
2018-09-11T01:45:04.539Z,89.61
2018-09-11T01:46:14.604Z,89.71
2018-09-11T01:47:24.701Z,89.71
2018-09-11T01:48:34.903Z,89.61
2018-09-11T01:49:44.983Z,89.51
2018-09-11T01:50:55.071Z,89.81
2018-09-11T01:52:05.170Z,89.51
2018-09-11T01:53:15.273Z,89.51
2018-09-11T01:54:25.397Z,89.42
2018-09-11T01:55:35.463Z,89.51
2018-09-11T01:56:45.530Z,89.51
2018-09-11T01:57:55.601Z,89.9
2018-09-11T01:59:05.673Z,89.61
2018-09-11T02:00:15.231Z,89.61
2018-09-11T02:01:25.298Z,89.61
2018-09-11T02:02:35.380Z,89.42
2018-09-11T02:03:45.199Z,89.81
2018-09-11T02:04:55.281Z,89.42
2018-09-11T02:06:05.351Z,89.51
2018-09-11T02:07:15.414Z,89.42
2018-09-11T02:08:25.235Z,89.81
2018-09-11T02:09:35.303Z,89.81
2018-09-11T02:10:45.401Z,89.81
2018-09-11T02:11:55.470Z,89.81
2018-09-11T02:13:05.655Z,89.61
2018-09-11T02:14:15.732Z,89.81
2018-09-11T02:15:25.807Z,89.81
2018-09-11T02:16:35.882Z,89.71
2018-09-11T02:17:46.006Z,89.32
2018-09-11T02:18:56.085Z,89.81
2018-09-11T02:20:06.167Z,89.71
2018-09-11T02:21:15.706Z,89.61
2018-09-11T02:22:25.791Z,89.67
2018-09-11T02:23:35.909Z,89.61
2018-09-11T02:24:45.719Z,89.57
2018-09-11T02:25:55.789Z,89.67
2018-09-11T02:27:05.340Z,89.37
2018-09-11T02:28:15.541Z,89.67
2018-09-11T02:29:25.411Z,89.57
2018-09-11T02:30:35.480Z,89.37
2018-09-11T02:31:45.041Z,89.42
2018-09-11T02:32:55.185Z,89.61
2018-09-11T02:34:05.252Z,89.28
2018-09-11T02:35:15.125Z,89.37
2018-09-11T02:36:24.969Z,89.42
2018-09-11T02:37:35.053Z,89.61
2018-09-11T02:38:44.875Z,89.51
2018-09-11T02:39:54.968Z,89.32
2018-09-11T02:41:04.778Z,89.23
2018-09-11T02:42:14.596Z,89.32
2018-09-11T02:43:24.678Z,89.32
2018-09-11T02:44:34.755Z,89.61
2018-09-11T02:45:44.835Z,89.61
2018-09-11T02:46:54.637Z,89.61
2018-09-11T02:48:04.718Z,89.61
2018-09-11T02:49:14.785Z,89.61
2018-09-11T02:50:24.877Z,89.32
2018-09-11T02:51:35.444Z,89.71
2018-09-11T02:52:47.078Z,89.81
2018-09-11T02:53:57.143Z,89.61
2018-09-11T02:55:06.958Z,89.81
2018-09-11T02:56:17.038Z,89.51
2018-09-11T02:57:27.126Z,89.61
2018-09-11T02:58:37.252Z,89.61
2018-09-11T02:59:47.318Z,89.42
2018-09-11T03:00:57.401Z,89.42
2018-09-11T03:02:07.541Z,89.42
2018-09-11T03:34:55.883Z,84.06
2018-09-11T03:36:05.934Z,84.92
2018-09-11T03:37:16.019Z,85.21
2018-09-11T03:38:26.106Z,85.84
2018-09-11T03:39:36.183Z,86.8
2018-09-11T03:40:46.245Z,86.8
2018-09-11T03:41:56.057Z,87.86
2018-09-11T03:43:06.119Z,88.39
2018-09-11T03:44:16.368Z,88.39
2018-09-11T03:45:26.949Z,88.77
2018-09-11T03:46:37.038Z,88.77
2018-09-11T03:47:47.158Z,89.15
2018-09-11T03:48:57.220Z,89.06
2018-09-11T03:50:07.289Z,89.35
2018-09-11T03:51:17.386Z,89.2
2018-09-11T03:52:27.457Z,89.39
2018-09-11T03:53:37.599Z,89.49
2018-09-11T03:54:47.726Z,89.29
2018-09-11T03:55:57.606Z,89.29
2018-09-11T03:57:07.672Z,89.58
2018-09-11T03:58:17.740Z,89.53
2018-09-11T03:59:27.966Z,89.15
2018-09-11T04:00:38.070Z,89.53
2018-09-11T04:01:48.142Z,89.43
2018-09-11T04:02:58.289Z,89.43
2018-09-11T04:04:08.359Z,89.43
2018-09-11T04:05:18.515Z,89.24
2018-09-11T04:06:28.171Z,89.34
2018-09-11T04:07:38.241Z,89.48
2018-09-11T04:08:48.353Z,89.48
2018-09-11T04:09:58.173Z,89.39
2018-09-11T04:11:08.046Z,89.19
2018-09-11T04:12:18.128Z,89.67
2018-09-11T04:13:28.199Z,89.39
2018-09-11T04:14:38.272Z,89.67
2018-09-11T04:15:48.077Z,89.48
2018-09-11T04:16:58.179Z,89.09
2018-09-11T04:18:08.251Z,89.04
2018-09-11T04:19:18.321Z,89
2018-09-11T04:20:28.139Z,89.23
2018-09-11T04:21:37.945Z,89.33
2018-09-11T04:22:47.809Z,89.14
2018-09-11T04:23:57.612Z,89.23
2018-09-11T04:25:07.693Z,89.43
2018-09-11T04:26:17.506Z,88.85
2018-09-11T04:27:27.575Z,88.65
2018-09-11T04:28:37.646Z,89.14
2018-09-11T04:29:47.468Z,89.04
2018-09-11T04:30:57.552Z,89.14
2018-09-11T04:32:07.102Z,88.95
2018-09-11T04:33:17.233Z,89.18
2018-09-11T04:34:27.039Z,89.09
2018-09-11T04:35:37.247Z,89.04
2018-09-11T04:36:47.057Z,89.18
2018-09-11T04:37:57.157Z,88.7
2018-09-11T04:39:07.240Z,89.09
2018-09-11T04:40:17.539Z,89.09
2018-09-11T04:41:27.371Z,89.18
2018-09-11T04:42:37.455Z,89.37
2018-09-11T04:43:47.323Z,89.18
2018-09-11T04:44:57.409Z,89.18
2018-09-11T04:46:07.495Z,88.99
2018-09-11T04:47:17.318Z,89.23
2018-09-11T04:48:27.384Z,88.99
2018-09-11T04:49:37.206Z,89.13
2018-09-11T04:50:47.282Z,89.13
2018-09-11T04:51:57.355Z,89.03
2018-09-11T04:53:07.416Z,89.32
2018-09-11T04:54:17.495Z,89.03
2018-09-11T04:55:27.596Z,89.03
2018-09-11T04:56:37.408Z,88.65
2018-09-11T04:57:47.635Z,88.93
2018-09-11T04:58:57.456Z,88.84
2018-09-11T05:00:07.301Z,88.93
2018-09-11T05:01:17.146Z,89.13
2018-09-11T05:02:26.960Z,89.03
2018-09-11T05:03:36.816Z,89.03
2018-09-11T05:04:46.436Z,88.89
2018-09-11T05:05:56.502Z,88.5
2018-09-11T05:07:06.587Z,88.5
2018-09-11T05:08:16.655Z,88.79
2018-09-11T05:09:26.537Z,88.79
2018-09-11T05:10:36.383Z,88.69
2018-09-11T05:11:46.204Z,88.69
2018-09-11T05:12:55.752Z,88.59
2018-09-11T05:14:05.849Z,88.79
2018-09-11T05:15:15.991Z,88.64
2018-09-11T05:16:25.805Z,88.79
2018-09-11T05:17:35.867Z,88.64
2018-09-11T05:18:45.949Z,88.73
2018-09-11T05:19:56.031Z,88.73
2018-09-11T05:21:05.935Z,88.93
2018-09-11T05:22:16.011Z,88.35
2018-09-11T05:23:26.089Z,88.45
2018-09-11T05:24:36.146Z,88.35
2018-09-11T05:25:45.996Z,88.73
2018-09-11T05:26:55.821Z,88.78
2018-09-11T05:28:05.912Z,88.59
2018-09-11T05:29:16.008Z,88.39
2018-09-11T05:30:26.085Z,88.59
2018-09-11T05:31:36.166Z,88.87
2018-09-11T05:32:46.269Z,88.49
2018-09-11T05:33:56.348Z,88.97
2018-09-11T05:35:06.206Z,88.49
2018-09-11T05:36:16.038Z,88.78
2018-09-11T05:37:26.110Z,88.63
2018-09-11T05:38:35.977Z,88.63
2018-09-11T05:39:46.049Z,87.85
2018-09-11T05:40:55.874Z,88.24
2018-09-11T05:42:05.944Z,87.95
2018-09-11T05:43:16.030Z,88.29
2018-09-11T05:44:26.169Z,88.67
2018-09-11T05:45:35.981Z,87.81
2018-09-11T05:46:45.806Z,87.9
2018-09-11T05:47:55.895Z,87.81
2018-09-11T05:49:05.966Z,88.09
2018-09-11T05:50:16.109Z,88.43
2018-09-11T05:51:26.183Z,88.43
2018-09-11T05:52:36.010Z,88.23
2018-09-11T05:53:45.828Z,87.85
2018-09-11T05:54:55.892Z,87.85
2018-09-11T05:56:06.111Z,87.85
2018-09-11T05:57:16.192Z,87.95
2018-09-11T05:58:26.429Z,87.95
2018-09-11T05:59:36.857Z,87.95
2018-09-11T06:00:46.927Z,87.89
2018-09-11T06:01:57.059Z,88.09
2018-09-11T06:03:07.143Z,87.89
2018-09-11T06:04:17.254Z,87.89
2018-09-11T06:05:27.426Z,87.99
2018-09-11T06:06:37.695Z,87.7
2018-09-11T06:07:47.801Z,87.89
2018-09-11T06:08:57.624Z,87.7
2018-09-11T06:10:07.721Z,87.41
2018-09-11T06:11:17.850Z,87.84
2018-09-11T06:12:27.660Z,87.45
2018-09-11T06:13:37.756Z,87.45
2018-09-11T06:14:47.863Z,87.74
2018-09-11T06:15:57.954Z,87.64
2018-09-11T06:17:08.559Z,86.87
2018-09-11T06:18:18.373Z,87.4
2018-09-11T06:19:28.238Z,87.2
2018-09-11T06:20:38.312Z,87.01
2018-09-11T06:21:48.419Z,87.1
2018-09-11T06:22:58.520Z,87.05
2018-09-11T06:24:08.585Z,87.24
2018-09-11T06:25:18.722Z,86.95
2018-09-11T06:26:28.810Z,86.57
2018-09-11T06:27:38.639Z,86.47
2018-09-11T06:28:48.710Z,86.41
2018-09-11T06:29:58.674Z,86.8
2018-09-11T06:31:08.823Z,86.71
2018-09-11T06:32:19.443Z,86.46
2018-09-11T06:33:29.564Z,86.75
2018-09-11T06:34:39.412Z,86.55
2018-09-11T06:35:49.497Z,86.36
2018-09-11T06:36:59.508Z,86.07
2018-09-11T06:38:09.609Z,86.26
2018-09-11T06:39:19.428Z,86.11
2018-09-11T06:40:29.259Z,86.01
2018-09-11T06:41:39.350Z,86.3
2018-09-11T06:42:49.496Z,86.11
2018-09-11T06:43:59.573Z,86.44
2018-09-11T06:45:09.388Z,86.6
2018-09-11T06:46:19.470Z,86.74
2018-09-11T06:47:29.272Z,86.93
2018-09-11T06:48:39.353Z,86.83
2018-09-11T06:49:49.449Z,86.54
2018-09-11T06:50:59.539Z,86.74
2018-09-11T06:52:09.608Z,86.64
2018-09-11T06:53:19.690Z,86.54
2018-09-11T06:54:29.878Z,86.54
2018-09-11T06:55:40.057Z,86.54
2018-09-11T06:56:50.135Z,86.44
2018-09-11T06:57:59.972Z,86.54
2018-09-11T06:59:10.319Z,86.83
2018-09-11T07:00:20.529Z,86.74
2018-09-11T07:01:30.657Z,86.58
2018-09-11T07:02:40.468Z,86.58
2018-09-11T07:03:50.554Z,86.68
2018-09-11T07:05:00.642Z,86.68
2018-09-11T07:06:10.720Z,86.78
2018-09-11T07:07:20.911Z,86.88
2018-09-11T07:08:30.845Z,86.78
2018-09-11T07:09:41.009Z,86.78
2018-09-11T07:10:50.812Z,86.72
2018-09-11T07:12:00.909Z,86.68
2018-09-11T07:13:10.730Z,86.78
2018-09-11T07:14:20.852Z,86.58
2018-09-11T07:15:30.958Z,86.88
2018-09-11T07:16:40.771Z,87.02
2018-09-11T07:17:50.851Z,87.12
2018-09-11T07:19:01.173Z,86.33
2018-09-11T07:20:11.981Z,86.33
2018-09-11T07:21:23.942Z,86.04
2018-09-11T07:22:34.030Z,86.28
2018-09-11T07:23:43.853Z,85.6
2018-09-11T07:24:53.946Z,86.03
2018-09-11T07:26:03.528Z,85.44
2018-09-11T07:27:13.210Z,85.25
2018-09-11T07:28:23.329Z,85
2018-09-11T07:29:33.414Z,85.49
2018-09-11T07:30:43.501Z,85.19
2018-09-11T07:31:53.338Z,85.29
2018-09-11T07:33:03.765Z,85.04
2018-09-11T07:34:13.569Z,85.14
2018-09-11T07:35:23.403Z,84.79
2018-09-11T07:36:33.552Z,84.5
2018-09-11T07:37:43.741Z,84.5
2018-09-11T07:38:53.756Z,84.5
2018-09-11T07:40:03.847Z,84.83
2018-09-11T07:41:13.957Z,84.74
2018-09-11T07:42:24.037Z,84.83
2018-09-11T07:43:34.116Z,84.64
2018-09-11T07:44:44.201Z,85.13
2018-09-11T07:45:54.028Z,85.03
2018-09-11T07:47:04.108Z,85.13
2018-09-11T07:48:14.282Z,85.03
2018-09-11T07:49:24.352Z,85.07
2018-09-11T07:50:34.435Z,84.88
2018-09-11T07:51:43.978Z,85.17
2018-09-11T07:52:53.935Z,85.27
2018-09-11T07:54:04.516Z,84.88
2018-09-11T07:55:14.628Z,84.97
2018-09-11T07:56:24.201Z,85.07
2018-09-11T07:57:34.389Z,84.68
2018-09-11T07:58:44.519Z,84.63
2018-09-11T07:59:54.660Z,83.94
2018-09-11T08:01:04.517Z,84.38
2018-09-11T08:02:14.588Z,84.57
2018-09-11T08:03:24.671Z,84.57
2018-09-11T08:04:34.769Z,84.18
2018-09-11T08:05:44.844Z,84.7
2018-09-11T08:06:54.922Z,84.31
2018-09-11T08:08:04.995Z,84.26
2018-09-11T08:09:14.819Z,83.87
2018-09-11T08:10:24.696Z,84.01
2018-09-11T08:11:34.576Z,84.01
2018-09-11T08:12:44.664Z,83.75
2018-09-11T08:13:54.746Z,83.95
2018-09-11T08:15:04.309Z,83.95
2018-09-11T08:16:14.163Z,84.64
2018-09-11T08:17:24.084Z,84.44
2018-09-11T08:18:34.174Z,84.74
2018-09-11T08:19:44.343Z,84.83
2018-09-11T08:20:54.447Z,84.44
2018-09-11T08:22:04.554Z,84.14
2018-09-11T08:23:14.634Z,85.38
2018-09-11T08:24:24.712Z,84.69
2018-09-11T08:25:34.795Z,85.24
2018-09-11T08:26:44.866Z,85.43
2018-09-11T08:27:54.953Z,85.43
2018-09-11T08:29:05.031Z,85.43
2018-09-11T08:30:14.936Z,85.43
2018-09-11T08:31:25.012Z,85.14
2018-09-11T08:32:35.085Z,84.94
2018-09-11T08:33:45.169Z,85.53
2018-09-11T08:34:55.266Z,85.43
2018-09-11T08:36:05.334Z,85.14
2018-09-11T08:37:15.430Z,85.14
2018-09-11T08:38:25.530Z,85.43
2018-09-11T08:39:35.626Z,85.58
2018-09-11T08:40:45.716Z,85.39
2018-09-11T08:41:55.554Z,85.39
2018-09-11T08:43:06.131Z,85.49
2018-09-11T08:44:16.212Z,85.39
2018-09-11T08:45:26.032Z,85.39
2018-09-11T08:46:36.269Z,84.9
2018-09-11T08:47:46.085Z,84.36
2018-09-11T08:48:56.189Z,84.45
2018-09-11T08:50:06.283Z,84.5
2018-09-11T08:51:16.403Z,84.69
2018-09-11T08:52:26.583Z,84.11
2018-09-11T08:53:36.759Z,84.69
2018-09-11T08:54:46.854Z,85.43
2018-09-11T08:55:56.960Z,85.43
2018-09-11T08:57:07.052Z,85.53
2018-09-11T08:58:17.145Z,85.04
2018-09-11T08:59:27.337Z,85.24
2018-09-11T09:00:37.166Z,84.94
2018-09-11T09:01:46.467Z,85.63
2018-09-11T09:02:56.294Z,85.43
2018-09-11T09:04:06.441Z,85.19
2018-09-11T09:05:16.546Z,85.33
2018-09-11T09:06:26.619Z,85.63
2018-09-11T09:07:36.450Z,85.63
2018-09-11T09:08:46.522Z,85.68
2018-09-11T09:09:56.788Z,85.49
2018-09-11T09:11:07.155Z,85.58
2018-09-11T09:12:17.259Z,84.9
2018-09-11T09:13:27.329Z,85.19
2018-09-11T09:14:36.900Z,85.04
2018-09-11T09:15:46.733Z,85.04
2018-09-11T09:16:56.832Z,84.5
2018-09-11T09:18:06.975Z,84.26
2018-09-11T09:19:17.097Z,84.3
2018-09-11T09:20:27.205Z,84.69
2018-09-11T09:21:37.047Z,84.5
2018-09-11T09:22:47.138Z,84.4
2018-09-11T09:23:57.234Z,84.36
2018-09-11T09:25:07.342Z,84.5
2018-09-11T09:26:17.152Z,84.4
2018-09-11T09:27:27.387Z,84.3
2018-09-11T09:28:37.425Z,84.5
2018-09-11T09:29:47.501Z,84.4
2018-09-11T09:30:57.591Z,84.74
2018-09-11T09:32:07.901Z,84.14
2018-09-11T09:33:18.021Z,84.34
2018-09-11T09:34:28.116Z,84.14
2018-09-11T09:35:37.957Z,84.64
2018-09-11T09:36:48.177Z,84.58
2018-09-11T09:37:58.459Z,84.19
2018-09-11T09:39:08.573Z,84.64
2018-09-11T09:40:18.667Z,84.34
2018-09-11T09:41:28.783Z,84.44
2018-09-11T09:42:38.723Z,84.74
2018-09-11T09:43:48.910Z,84.74
2018-09-11T09:44:58.960Z,85.42
2018-09-11T09:46:08.779Z,85.18
2018-09-11T09:47:18.596Z,85.38
2018-09-11T09:48:28.697Z,85.28
2018-09-11T09:49:38.834Z,84.69
2018-09-11T09:50:49.020Z,84.83
2018-09-11T09:51:59.545Z,85.08
2018-09-11T09:53:09.648Z,84.89
2018-09-11T09:54:18.965Z,84.79
2018-09-11T09:55:29.083Z,84.83
2018-09-11T09:56:39.191Z,84.14
2018-09-11T09:57:49.339Z,84.54
2018-09-11T09:58:59.658Z,84.34
2018-09-11T10:00:10.058Z,84.64
2018-09-11T10:01:19.824Z,84.67
2018-09-11T10:02:29.955Z,84.48
2018-09-11T10:03:39.784Z,84.48
2018-09-11T10:04:49.736Z,84.67
2018-09-11T10:05:59.948Z,84.44
2018-09-11T10:07:09.826Z,84.67
2018-09-11T10:08:19.890Z,84.67
2018-09-11T10:09:29.745Z,84.58
2018-09-11T10:10:39.600Z,84.67
2018-09-11T10:11:49.661Z,84.77
2018-09-11T10:12:59.728Z,84.62
2018-09-11T10:14:09.585Z,84.33
2018-09-11T10:15:19.711Z,84.33
2018-09-11T10:16:29.810Z,84.42
2018-09-11T10:17:40.104Z,84.47
2018-09-11T10:18:49.997Z,84.17
2018-09-11T10:20:00.072Z,84.37
2018-09-11T10:21:10.163Z,84.37
2018-09-11T10:22:20.313Z,84.56
2018-09-11T10:23:30.159Z,84.66
2018-09-11T10:24:40.290Z,84.27
2018-09-11T10:25:50.116Z,84.66
2018-09-11T10:27:00.422Z,84.76
2018-09-11T10:28:10.538Z,84.76
2018-09-11T10:29:20.683Z,84.41
2018-09-11T10:30:30.811Z,84.21
2018-09-11T10:31:40.913Z,84.31
2018-09-11T10:32:50.998Z,83.37
2018-09-11T10:34:00.820Z,83.66
2018-09-11T10:35:10.962Z,83.56
2018-09-11T10:36:21.055Z,83.66
2018-09-11T10:37:31.198Z,84.35
2018-09-11T10:38:41.025Z,83.86
2018-09-11T10:39:51.117Z,84.3
2018-09-11T10:41:01.323Z,84.3
2018-09-11T10:42:11.422Z,84.59
2018-09-11T10:43:21.522Z,84.09
2018-09-11T10:44:31.666Z,83.41
2018-09-11T10:45:41.787Z,84.23
2018-09-11T10:46:51.677Z,84.39
2018-09-11T10:48:01.779Z,84.98
2018-09-11T10:49:11.872Z,84.25
2018-09-11T10:50:21.954Z,84.64
2018-09-11T10:51:32.114Z,85.1
2018-09-11T10:52:42.263Z,85.88
2018-09-11T10:53:52.370Z,85.64
2018-09-11T10:55:02.437Z,85.44
2018-09-11T10:56:12.573Z,85.74
2018-09-11T10:57:22.684Z,84.66
2018-09-11T10:58:32.824Z,84.76
2018-09-11T10:59:42.937Z,85.39
2018-09-11T11:00:53.059Z,84.47
2018-09-11T11:02:03.336Z,84.9
2018-09-11T11:03:13.674Z,84.6
2018-09-11T11:04:23.880Z,84.9
2018-09-11T11:05:33.969Z,84.41
2018-09-11T11:06:44.077Z,85.19
2018-09-11T11:07:54.168Z,84.95
2018-09-11T11:09:04.258Z,84.76
2018-09-11T11:10:13.609Z,85.64
2018-09-11T11:11:23.710Z,85.44
2018-09-11T11:12:33.532Z,85.64
2018-09-11T11:13:43.344Z,84.86
2018-09-11T11:14:53.156Z,84.86
2018-09-11T11:16:03.345Z,84.66
2018-09-11T11:17:13.771Z,84.76
2018-09-11T11:18:23.561Z,85.25
2018-09-11T11:19:33.379Z,84.86
2018-09-11T11:20:43.169Z,85.05
2018-09-11T11:21:53.343Z,85.15
2018-09-11T11:23:03.771Z,84.95
2018-09-11T11:24:13.870Z,84.95
2018-09-11T11:25:23.978Z,85.44
2018-09-11T11:26:34.336Z,84.66
2018-09-11T11:27:44.452Z,84.86
2018-09-11T11:28:54.809Z,84.7
2018-09-11T11:30:04.937Z,84.5
2018-09-11T11:31:15.054Z,84.31
2018-09-11T11:32:25.157Z,84.21
2018-09-11T11:33:35.271Z,84.31
2018-09-11T11:34:45.110Z,84.84
2018-09-11T11:35:55.215Z,84.35
2018-09-11T11:37:05.890Z,84.94
2018-09-11T11:38:16.294Z,84.74
2018-09-11T11:39:26.398Z,84.74
2018-09-11T11:40:36.508Z,85.03
2018-09-11T11:41:46.757Z,84.84
2018-09-11T11:42:57.218Z,84.94
2018-09-11T11:44:07.299Z,84.94
2018-09-11T11:45:17.377Z,84.64
2018-09-11T11:46:27.220Z,85.03
2018-09-11T11:47:37.345Z,84.64
2018-09-11T11:48:47.450Z,84.55
2018-09-11T11:49:57.316Z,84.45
2018-09-11T11:51:07.425Z,84.84
2018-09-11T11:52:17.521Z,84.55
2018-09-11T11:53:27.400Z,84.84
2018-09-11T11:54:37.701Z,85.1
2018-09-11T11:55:47.923Z,85
2018-09-11T11:56:58.030Z,85.29
2018-09-11T11:58:08.130Z,84.94
2018-09-11T11:59:17.980Z,84.7
2018-09-11T12:00:27.815Z,84.84
2018-09-11T12:01:37.994Z,85.33
2018-09-11T12:02:48.422Z,85.39
2018-09-11T12:03:58.517Z,84.55
2018-09-11T12:05:08.647Z,84.94
2018-09-11T12:06:18.477Z,84.84
2018-09-11T12:07:28.820Z,84.74
2018-09-11T12:08:38.671Z,84.35
2018-09-11T12:09:48.789Z,84.98
2018-09-11T12:10:58.638Z,84.49
2018-09-11T12:12:08.711Z,84.3
2018-09-11T12:13:18.538Z,84.83
2018-09-11T12:14:28.629Z,84.43
2018-09-11T12:15:38.449Z,83.59
2018-09-11T12:16:48.609Z,83.59
2018-09-11T12:17:58.617Z,84.08
2018-09-11T12:19:08.432Z,83.69
2018-09-11T12:20:18.519Z,83.83
2018-09-11T12:21:28.349Z,83.73
2018-09-11T12:22:38.446Z,83.87
2018-09-11T12:23:48.263Z,84.32
2018-09-11T12:24:58.376Z,84.02
2018-09-11T12:26:08.573Z,84.16
2018-09-11T12:27:18.564Z,83.87
2018-09-11T12:28:28.453Z,83.87
2018-09-11T12:29:38.287Z,83.97
2018-09-11T12:30:48.357Z,84.26
2018-09-11T12:31:58.567Z,84.26
2018-09-11T12:33:08.672Z,84.75
2018-09-11T12:34:18.496Z,84.52
2018-09-11T12:35:28.616Z,84.52
2018-09-11T12:36:38.709Z,84.42
2018-09-11T12:37:48.794Z,84.32
2018-09-11T12:38:58.893Z,84.32
2018-09-11T12:40:09.072Z,84.61
2018-09-11T12:41:19.228Z,84.61
2018-09-11T12:42:29.357Z,84.57
2018-09-11T12:43:39.454Z,84.67
2018-09-11T12:44:49.559Z,84.38
2018-09-11T12:45:59.664Z,84.38
2018-09-11T12:47:10.986Z,84.47
2018-09-11T12:48:23.305Z,84.57
2018-09-11T12:49:34.496Z,84.57
2018-09-11T12:50:44.587Z,84.57
2018-09-11T12:51:54.403Z,84.18
2018-09-11T12:53:04.507Z,84.47
2018-09-11T12:54:14.575Z,84.38
2018-09-11T12:55:24.676Z,84.42
2018-09-11T12:56:34.477Z,84.32
2018-09-11T12:57:44.612Z,84.32
2018-09-11T12:58:54.710Z,84.28
2018-09-11T13:00:04.554Z,84.57
2018-09-11T13:01:14.622Z,84.57
2018-09-11T13:02:24.818Z,84.57
2018-09-11T13:03:35.369Z,84.38
2018-09-11T13:04:45.461Z,84.38
2018-09-11T13:05:55.592Z,83.63
2018-09-11T13:07:06.240Z,83.92
2018-09-11T13:08:16.322Z,83.44
2018-09-11T13:09:26.575Z,83.77
2018-09-11T13:10:36.639Z,83.18
2018-09-11T13:11:46.717Z,83.57
2018-09-11T13:12:56.826Z,83.47
2018-09-11T13:14:06.919Z,83.18
2018-09-11T13:15:17.087Z,83.18
2018-09-11T13:16:27.197Z,83.47
2018-09-11T13:17:37.299Z,83.47
2018-09-11T13:18:47.380Z,83.47
2018-09-11T13:19:57.487Z,83.67
2018-09-11T13:21:07.566Z,84.06
2018-09-11T13:22:17.689Z,83.67
2018-09-11T13:23:27.763Z,84.42
2018-09-11T13:24:37.884Z,84.91
2018-09-11T13:25:48.031Z,84.67
2018-09-11T13:26:58.111Z,84.83
2018-09-11T13:28:08.207Z,84.83
2018-09-11T13:29:18.336Z,84.98
2018-09-11T13:30:28.439Z,84.59
2018-09-11T13:31:38.556Z,84.59
2018-09-11T13:32:48.375Z,84.59
2018-09-11T13:33:58.740Z,84.39
2018-09-11T13:35:08.664Z,84.39
2018-09-11T13:36:18.239Z,84.49
2018-09-11T13:37:28.351Z,84.78
2018-09-11T13:38:38.443Z,84.39
2018-09-11T13:39:48.553Z,84.74
2018-09-11T13:40:58.705Z,85.63
2018-09-11T13:42:08.787Z,85.49
2018-09-11T13:43:18.908Z,85.68
2018-09-11T13:44:29.041Z,85
2018-09-11T13:45:39.135Z,84.64
2018-09-11T13:46:49.269Z,84.74
2018-09-11T13:47:59.656Z,84.35
2018-09-11T13:49:09.740Z,84.45
2018-09-11T13:50:19.562Z,84.64
2018-09-11T13:51:29.660Z,84.64
2018-09-11T13:52:39.564Z,84.64
2018-09-11T13:53:49.401Z,84.94
2018-09-11T13:54:58.964Z,84.45
2018-09-11T13:56:09.301Z,84.84
2018-09-11T13:57:19.598Z,85.14
2018-09-11T13:58:29.559Z,84.98
2018-09-11T13:59:39.619Z,84.74
2018-09-11T14:00:49.726Z,84.45
2018-09-11T14:01:59.813Z,84.74
2018-09-11T14:03:09.918Z,84.94
2018-09-11T14:04:20.057Z,84.8
2018-09-11T14:05:30.335Z,84.5
2018-09-11T14:06:40.167Z,84.74
2018-09-11T14:07:49.990Z,84.84
2018-09-11T14:08:59.826Z,84.94
2018-09-11T14:10:09.987Z,84.74
2018-09-11T14:11:20.073Z,84.6
2018-09-11T14:12:30.158Z,84.5
2018-09-11T14:13:39.997Z,84.7
2018-09-11T14:14:49.563Z,84.66
2018-09-11T14:15:59.878Z,84.8
2018-09-11T14:17:09.976Z,84.41
2018-09-11T14:18:20.040Z,84.5
2018-09-11T14:19:29.866Z,84.31
2018-09-11T14:20:39.965Z,84.6
2018-09-11T14:21:51.106Z,84.17
2018-09-11T14:23:01.197Z,84.56
2018-09-11T14:24:11.278Z,84.47
2018-09-11T14:25:21.392Z,84.47
2018-09-11T14:26:31.491Z,84.56
2018-09-11T14:27:41.694Z,84.56
2018-09-11T14:28:51.535Z,84.66
2018-09-11T14:30:01.821Z,84.76
2018-09-11T14:31:11.895Z,84.66
2018-09-11T14:32:21.996Z,84.56
2018-09-11T14:33:31.859Z,84.42
2018-09-11T14:34:42.012Z,84.72
2018-09-11T14:35:52.126Z,84.91
2018-09-11T14:37:01.939Z,84.81
2018-09-11T14:38:12.045Z,84.52
2018-09-11T14:39:22.200Z,85.4
2018-09-11T14:40:32.293Z,85.21
2018-09-11T14:41:42.387Z,84.91
2018-09-11T14:42:53.386Z,85.01
2018-09-11T14:44:03.168Z,84.72
2018-09-11T14:45:13.283Z,85.56
2018-09-11T14:46:23.166Z,85.27
2018-09-11T14:47:33.492Z,85.22
2018-09-11T14:48:43.595Z,85.52
2018-09-11T14:49:53.415Z,85.32
2018-09-11T14:51:03.267Z,85.42
2018-09-11T14:52:13.347Z,85.22
2018-09-11T14:53:23.426Z,85.42
2018-09-11T14:54:33.247Z,85.22
2018-09-11T14:55:43.167Z,85.52
2018-09-11T14:56:53.546Z,85.61
2018-09-11T14:58:03.639Z,85.71
2018-09-11T14:59:13.746Z,85.67
2018-09-11T15:00:24.096Z,85.52
2018-09-11T15:01:34.435Z,85.47
2018-09-11T15:02:44.271Z,85.57
2018-09-11T15:03:54.371Z,85.28
2018-09-11T15:05:04.192Z,85.96
2018-09-11T15:06:14.281Z,85.67
2018-09-11T15:07:24.432Z,85.67
2018-09-11T15:08:34.528Z,85.53
2018-09-11T15:09:44.943Z,85.33
2018-09-11T15:10:55.042Z,85.33
2018-09-11T15:12:05.135Z,85.63
2018-09-11T15:13:14.965Z,85.33
2018-09-11T15:14:25.071Z,85.33
2018-09-11T15:15:35.178Z,85.33
2018-09-11T15:16:45.275Z,85.24
2018-09-11T15:17:55.362Z,85.43
2018-09-11T15:19:05.967Z,85.72
2018-09-11T15:20:16.106Z,85.72
2018-09-11T15:21:26.218Z,85.68
2018-09-11T15:22:36.529Z,85.82
2018-09-11T15:23:46.876Z,86.07
2018-09-11T15:24:57.043Z,86.17
2018-09-11T15:26:07.183Z,86.07
2018-09-11T15:27:17.354Z,86.07
2018-09-11T15:28:27.467Z,85.68
2018-09-11T15:29:37.304Z,86.17
2018-09-11T15:30:47.454Z,85.68
2018-09-11T15:31:57.303Z,86.07
2018-09-11T15:33:07.439Z,86.27
2018-09-11T15:34:17.275Z,86.07
2018-09-11T15:35:27.406Z,86.43